createdAt,value
2022-09-23T00:01:05.370Z,1.70
2022-09-23T00:03:33.043Z,1.80
2022-09-23T00:06:05.073Z,1.60
2022-09-23T00:08:32.270Z,1.95
2022-09-23T00:11:14.731Z,1.60
2022-09-23T00:13:43.925Z,1.77
2022-09-23T00:16:16.834Z,2.00
2022-09-23T00:18:44.309Z,1.83
2022-09-23T00:21:13.882Z,2.43
2022-09-23T00:23:42.990Z,2.03
2022-09-23T00:26:12.827Z,2.00
2022-09-23T00:28:40.813Z,2.17
2022-09-23T00:31:27.411Z,2.20
2022-09-23T00:33:59.299Z,1.97
2022-09-23T00:36:26.888Z,2.55
2022-09-23T00:38:54.434Z,1.87
2022-09-23T00:41:21.456Z,2.60
2022-09-23T00:43:57.927Z,2.37
2022-09-23T00:46:37.759Z,2.40
2022-09-23T00:49:11.613Z,2.20
2022-09-23T00:51:44.371Z,2.50
2022-09-23T00:56:39.452Z,2.33
2022-09-23T00:59:09.668Z,2.10
2022-09-23T01:01:38.638Z,2.30
2022-09-23T01:04:07.276Z,2.80
2022-09-23T01:06:33.953Z,2.03
2022-09-23T01:09:00.788Z,1.90
2022-09-23T01:11:44.850Z,2.30
2022-09-23T01:14:38.009Z,3.13
2022-09-23T01:17:32.624Z,2.65
2022-09-23T01:20:33.201Z,2.27
2022-09-23T01:23:18.303Z,2.03
2022-09-23T01:25:48.288Z,2.00
2022-09-23T01:28:33.456Z,2.00
2022-09-23T01:31:10.082Z,1.87
2022-09-23T01:33:46.413Z,1.73
2022-09-23T01:36:24.469Z,1.90
2022-09-23T01:38:59.674Z,1.83
2022-09-23T01:41:39.172Z,1.80
2022-09-23T01:44:11.426Z,1.60
2022-09-23T01:46:54.070Z,1.60
2022-09-23T01:49:28.996Z,2.85
2022-09-23T01:52:10.438Z,1.77
2022-09-23T01:54:46.621Z,1.80
2022-09-23T01:57:22.972Z,1.80
2022-09-23T02:00:00.698Z,2.07
2022-09-23T02:02:31.968Z,1.67
2022-09-23T02:05:15.627Z,2.37
2022-09-23T02:07:51.170Z,1.70
2022-09-23T02:10:49.340Z,2.07
2022-09-23T02:13:59.609Z,1.63
2022-09-23T02:16:39.409Z,1.60
2022-09-23T02:19:14.450Z,2.13
2022-09-23T02:21:47.143Z,1.60
2022-09-23T02:24:28.824Z,1.90
2022-09-23T02:27:26.007Z,1.67
2022-09-23T02:30:12.695Z,2.00
2022-09-23T02:32:53.438Z,1.80
2022-09-23T02:35:49.176Z,1.60
2022-09-23T02:38:46.537Z,2.03
2022-09-23T02:41:23.473Z,1.67
2022-09-23T02:44:03.461Z,1.60
2022-09-23T02:46:30.903Z,1.80
2022-09-23T02:49:04.239Z,1.90
2022-09-23T02:51:38.569Z,2.20
2022-09-23T02:54:10.328Z,1.67
2022-09-23T02:56:37.577Z,2.27
2022-09-23T02:59:05.327Z,2.10
2022-09-23T03:01:45.286Z,1.87
2022-09-23T03:04:15.110Z,1.80
2022-09-23T03:06:56.953Z,1.70
2022-09-23T03:09:40.439Z,1.60
2022-09-23T03:12:21.613Z,1.57
2022-09-23T03:15:14.939Z,2.30
2022-09-23T03:20:34.719Z,1.60
2022-09-23T03:23:09.290Z,1.77
2022-09-23T03:25:39.985Z,1.50
2022-09-23T03:28:08.820Z,1.90
2022-09-23T03:30:36.731Z,1.10
2022-09-23T03:33:09.801Z,1.30
2022-09-23T03:36:01.726Z,1.70
2022-09-23T03:38:34.466Z,1.60
2022-09-23T03:41:04.204Z,1.40
2022-09-23T03:43:35.262Z,1.70
2022-09-23T03:46:07.409Z,1.70
2022-09-23T03:48:34.199Z,2.07
2022-09-23T03:51:19.788Z,1.50
2022-09-23T03:53:46.523Z,1.70
2022-09-23T03:56:13.202Z,1.50
2022-09-23T03:58:39.949Z,1.23
2022-09-23T04:01:06.758Z,1.37
2022-09-23T04:03:33.470Z,1.60
2022-09-23T04:06:00.242Z,1.40
2022-09-23T04:08:27.428Z,1.70
2022-09-23T04:11:00.232Z,1.50
2022-09-23T04:15:53.462Z,2.00
2022-09-23T04:18:21.472Z,1.77
2022-09-23T04:20:48.713Z,2.00
2022-09-23T04:23:15.422Z,1.33
2022-09-23T04:25:48.906Z,1.60
2022-09-23T04:28:16.320Z,1.90
2022-09-23T04:30:43.892Z,1.50
2022-09-23T04:33:11.495Z,1.73
2022-09-23T04:35:40.275Z,1.90
2022-09-23T04:38:07.433Z,1.77
2022-09-23T04:40:35.751Z,1.63
2022-09-23T04:43:02.757Z,1.50
2022-09-23T04:45:30.507Z,1.37
2022-09-23T04:47:58.579Z,1.40
2022-09-23T04:50:26.556Z,2.00
2022-09-23T04:52:55.186Z,2.07
2022-09-23T04:55:22.338Z,2.33
2022-09-23T04:57:48.997Z,2.00
2022-09-23T05:00:16.147Z,2.30
2022-09-23T05:02:47.923Z,2.23
2022-09-23T05:05:18.724Z,1.67
2022-09-23T05:07:45.349Z,2.20
2022-09-23T05:10:12.299Z,2.43
2022-09-23T05:12:38.995Z,2.40
2022-09-23T05:15:06.060Z,1.80
2022-09-23T05:17:33.003Z,2.13
2022-09-23T05:20:00.122Z,1.90
2022-09-23T05:22:26.913Z,1.50
2022-09-23T05:24:54.187Z,2.03
2022-09-23T05:27:21.388Z,3.23
2022-09-23T05:29:49.007Z,1.70
2022-09-23T05:32:15.933Z,2.93
2022-09-23T05:34:43.290Z,1.90
2022-09-23T05:37:10.202Z,2.30
2022-09-23T05:39:37.218Z,1.90
2022-09-23T05:42:04.878Z,2.27
2022-09-23T05:44:31.473Z,2.40
2022-09-23T05:46:58.297Z,1.70
2022-09-23T05:49:37.913Z,2.13
2022-09-23T05:52:11.831Z,1.70
2022-09-23T05:54:38.678Z,3.60
2022-09-23T05:57:06.156Z,2.00
2022-09-23T05:59:33.399Z,2.03
2022-09-23T06:02:00.940Z,2.10
2022-09-23T06:04:27.682Z,2.27
2022-09-23T06:06:54.472Z,2.13
2022-09-23T06:09:21.180Z,2.20
2022-09-23T06:11:47.836Z,2.10
2022-09-23T06:14:15.131Z,2.00
2022-09-23T06:16:43.215Z,2.17
2022-09-23T06:19:10.576Z,2.50
2022-09-23T06:21:39.560Z,2.43
2022-09-23T06:24:07.240Z,2.10
2022-09-23T06:26:35.261Z,2.50
2022-09-23T06:29:02.916Z,1.70
2022-09-23T06:31:30.390Z,2.17
2022-09-23T06:34:08.246Z,2.10
2022-09-23T06:36:44.050Z,2.97
2022-09-23T06:39:12.277Z,2.00
2022-09-23T06:41:39.530Z,1.87
2022-09-23T06:44:06.396Z,2.13
2022-09-23T06:46:33.241Z,1.73
2022-09-23T06:49:00.109Z,1.90
2022-09-23T06:51:26.727Z,1.90
2022-09-23T06:53:53.421Z,1.57
2022-09-23T06:56:21.298Z,1.87
2022-09-23T06:58:48.042Z,2.20
2022-09-23T07:01:17.099Z,2.50
2022-09-23T07:08:35.961Z,2.20
2022-09-23T07:12:02.391Z,2.10
2022-09-23T07:14:29.268Z,2.60
2022-09-23T07:16:55.995Z,2.70
2022-09-23T07:19:22.668Z,2.80
2022-09-23T07:21:49.584Z,2.87
2022-09-23T07:24:16.768Z,2.93
2022-09-23T07:26:45.799Z,2.70
2022-09-23T07:29:15.935Z,2.40
2022-09-23T07:31:42.787Z,2.67
2022-09-23T07:34:11.762Z,2.50
2022-09-23T07:36:41.097Z,3.17
2022-09-23T07:39:11.277Z,3.17
2022-09-23T07:41:38.171Z,2.80
2022-09-23T07:44:06.402Z,2.90
2022-09-23T07:46:35.912Z,3.17
2022-09-23T07:49:03.514Z,3.63
2022-09-23T07:51:36.581Z,2.70
2022-09-23T07:54:07.415Z,2.60
2022-09-23T07:56:35.947Z,3.10
2022-09-23T07:59:05.808Z,3.90
2022-09-23T08:01:36.657Z,2.45
2022-09-23T08:04:12.006Z,2.83
2022-09-23T08:06:49.997Z,3.07
2022-09-23T08:09:18.212Z,2.90
2022-09-23T08:11:45.100Z,3.17
2022-09-23T08:14:14.133Z,3.10
2022-09-23T08:16:42.236Z,2.90
2022-09-23T08:19:09.161Z,3.10
2022-09-23T08:21:37.773Z,2.50
2022-09-23T08:24:04.674Z,3.90
2022-09-23T08:26:34.336Z,3.07
2022-09-23T08:29:02.125Z,3.23
2022-09-23T08:31:28.891Z,3.70
2022-09-23T08:33:57.505Z,2.93
2022-09-23T08:36:25.531Z,3.00
2022-09-23T08:38:52.666Z,3.37
2022-09-23T08:41:34.889Z,2.97
2022-09-23T08:44:31.612Z,3.20
2022-09-23T08:47:17.984Z,3.10
2022-09-23T08:49:56.542Z,2.90
2022-09-23T08:52:34.557Z,2.90
2022-09-23T08:55:03.306Z,3.00
2022-09-23T08:58:02.260Z,2.80
2022-09-23T09:00:37.352Z,3.13
2022-09-23T09:03:21.314Z,2.80
2022-09-23T09:05:54.272Z,2.80
2022-09-23T09:08:34.772Z,3.10
2022-09-23T09:11:01.549Z,2.67
2022-09-23T09:13:34.301Z,2.40
2022-09-23T09:19:20.319Z,2.40
2022-09-23T09:21:52.328Z,2.33
2022-09-23T09:24:27.156Z,2.47
2022-09-23T09:26:54.207Z,2.80
2022-09-23T09:29:35.525Z,2.73
2022-09-23T09:32:17.047Z,2.80
2022-09-23T09:34:54.148Z,2.57
2022-09-23T09:37:33.914Z,2.80
2022-09-23T09:40:00.714Z,2.23
2022-09-23T09:42:37.350Z,2.30
2022-09-23T09:45:07.391Z,2.53
2022-09-23T09:48:00.748Z,2.23
2022-09-23T09:50:45.223Z,3.10
2022-09-23T09:53:25.588Z,2.63
2022-09-23T09:56:05.188Z,2.43
2022-09-23T09:58:44.041Z,2.70
2022-09-23T10:01:25.208Z,2.10
2022-09-23T10:03:59.580Z,2.17
2022-09-23T10:06:32.622Z,2.57
2022-09-23T10:09:02.559Z,1.93
2022-09-23T10:11:30.440Z,2.10
2022-09-23T10:14:02.702Z,2.00
2022-09-23T10:16:32.062Z,2.30
2022-09-23T10:19:27.397Z,2.10
2022-09-23T10:22:00.089Z,2.20
2022-09-23T10:27:12.091Z,2.13
2022-09-23T10:29:47.611Z,2.08
2022-09-23T10:32:26.471Z,2.40
2022-09-23T10:35:14.806Z,2.23
2022-09-23T10:37:51.810Z,2.27
2022-09-23T10:40:49.584Z,2.80
2022-09-23T10:43:44.151Z,2.83
2022-09-23T10:46:39.795Z,2.60
2022-09-23T10:49:34.075Z,3.27
2022-09-23T10:52:17.273Z,2.83
2022-09-23T10:54:49.993Z,2.90
2022-09-23T11:00:32.706Z,3.30
2022-09-23T11:03:40.673Z,2.60
2022-09-23T11:06:42.446Z,2.30
2022-09-23T11:09:40.863Z,1.90
2022-09-23T11:12:25.947Z,1.70
2022-09-23T11:15:07.379Z,2.20
2022-09-23T11:17:59.495Z,1.50
2022-09-23T11:20:41.836Z,1.60
2022-09-23T11:23:33.189Z,1.55
2022-09-23T11:26:34.257Z,1.63
2022-09-23T11:29:02.643Z,1.60
2022-09-23T11:31:41.679Z,1.70
2022-09-23T11:34:45.123Z,1.23
2022-09-23T11:37:17.458Z,1.27
2022-09-23T11:39:53.454Z,1.63
2022-09-23T11:42:28.991Z,2.30
2022-09-23T11:45:07.087Z,1.30
2022-09-23T11:47:45.496Z,1.50
2022-09-23T11:50:25.965Z,1.20
2022-09-23T11:53:02.952Z,1.47
2022-09-23T11:55:37.911Z,1.30
2022-09-23T11:58:26.280Z,1.10
2022-09-23T12:01:10.323Z,1.20
2022-09-23T12:03:54.200Z,1.27
2022-09-23T12:06:32.946Z,1.07
2022-09-23T12:09:05.251Z,1.00
2022-09-23T12:11:39.555Z,1.05
2022-09-23T12:14:12.453Z,0.90
2022-09-23T12:18:05.058Z,1.10
2022-09-23T12:21:27.490Z,0.77
2022-09-23T12:24:37.912Z,1.13
2022-09-23T12:27:47.348Z,1.00
2022-09-23T12:34:59.932Z,1.27
2022-09-23T12:38:35.708Z,1.40
2022-09-23T12:42:11.601Z,1.83
2022-09-23T12:45:56.372Z,1.20
2022-09-23T12:49:25.555Z,1.17
2022-09-23T12:52:10.856Z,1.23
2022-09-23T12:54:39.564Z,1.17
2022-09-23T12:57:34.931Z,1.20
2022-09-23T13:00:11.552Z,1.20
2022-09-23T13:02:43.384Z,1.30
2022-09-23T13:05:44.129Z,1.05
2022-09-23T13:08:24.602Z,0.47
2022-09-23T13:11:02.934Z,1.05
2022-09-23T13:13:31.793Z,0.50
2022-09-23T13:16:18.903Z,0.45
2022-09-23T13:18:54.249Z,0.70
2022-09-23T13:21:42.694Z,0.80
2022-09-23T13:24:18.135Z,1.02
2022-09-23T13:26:55.210Z,1.55
2022-09-23T13:30:19.324Z,1.60
2022-09-23T13:32:54.057Z,1.30
2022-09-23T13:35:29.873Z,1.20
2022-09-23T13:37:57.842Z,1.13
2022-09-23T13:40:27.862Z,1.10
2022-09-23T13:43:06.458Z,1.00
2022-09-23T13:45:40.045Z,1.20
2022-09-23T13:48:11.709Z,0.90
2022-09-23T13:50:40.993Z,1.25
2022-09-23T13:53:14.583Z,0.80
2022-09-23T13:55:41.500Z,0.95
2022-09-23T13:58:24.212Z,0.70
2022-09-23T14:00:51.844Z,0.52
2022-09-23T14:03:25.558Z,1.38
2022-09-23T14:05:55.173Z,1.42
2022-09-23T14:08:22.855Z,2.10
2022-09-23T14:10:50.009Z,1.83
2022-09-23T14:13:43.759Z,2.33
2022-09-23T14:16:15.214Z,2.13
2022-09-23T14:18:45.482Z,1.40
2022-09-23T14:21:30.647Z,2.10
2022-09-23T14:23:57.358Z,1.65
2022-09-23T14:26:24.841Z,2.20
2022-09-23T14:28:52.588Z,1.30
2022-09-23T14:31:19.452Z,0.95
2022-09-23T14:33:46.977Z,0.85
2022-09-23T14:36:36.900Z,1.67
2022-09-23T14:39:09.548Z,1.02
2022-09-23T14:41:40.267Z,0.80
2022-09-23T14:44:15.169Z,0.70
2022-09-23T14:47:00.729Z,0.88
2022-09-23T14:49:27.918Z,0.70
2022-09-23T14:52:03.238Z,1.00
2022-09-23T14:55:02.091Z,0.90
2022-09-23T14:57:31.604Z,0.85
2022-09-23T15:00:14.704Z,0.90
2022-09-23T15:02:57.611Z,0.70
2022-09-23T15:05:43.376Z,0.70
2022-09-23T15:08:14.267Z,0.77
2022-09-23T15:10:41.392Z,0.70
2022-09-23T15:13:24.103Z,0.67
2022-09-23T15:18:34.595Z,0.70
2022-09-23T15:21:07.666Z,1.13
2022-09-23T15:23:45.108Z,0.80
2022-09-23T15:26:22.671Z,0.70
2022-09-23T15:28:54.147Z,0.60
2022-09-23T15:31:23.362Z,0.87
2022-09-23T15:33:51.148Z,0.60
2022-09-23T15:36:19.433Z,1.57
2022-09-23T15:38:46.884Z,1.10
2022-09-23T15:41:14.559Z,0.60
2022-09-23T15:43:42.094Z,0.70
2022-09-23T15:46:19.121Z,0.80
2022-09-23T15:49:14.736Z,0.90
2022-09-23T15:51:43.265Z,0.90
2022-09-23T15:54:12.791Z,1.03
2022-09-23T15:56:40.099Z,0.80
2022-09-23T15:59:06.822Z,0.87
2022-09-23T16:01:37.090Z,0.80
2022-09-23T16:04:04.888Z,0.80
2022-09-23T16:06:32.366Z,0.43
2022-09-23T16:08:59.085Z,0.37
2022-09-23T16:11:33.119Z,0.63
2022-09-23T16:14:00.849Z,0.60
2022-09-23T16:16:28.229Z,0.43
2022-09-23T16:18:55.537Z,0.77
2022-09-23T16:21:28.018Z,0.60
2022-09-23T16:23:55.501Z,0.65
2022-09-23T16:26:31.107Z,0.63
2022-09-23T16:28:58.847Z,1.20
2022-09-23T16:31:26.793Z,0.50
2022-09-23T16:33:54.139Z,0.57
2022-09-23T16:36:31.203Z,0.70
2022-09-23T16:39:00.321Z,0.73
2022-09-23T16:41:31.692Z,0.80
2022-09-23T16:44:00.926Z,1.03
2022-09-23T16:46:29.492Z,1.00
2022-09-23T16:48:57.756Z,0.70
2022-09-23T16:51:30.173Z,0.70
2022-09-23T16:53:58.940Z,1.33
2022-09-23T16:56:29.206Z,1.00
2022-09-23T16:58:57.096Z,1.00
2022-09-23T17:01:47.533Z,0.73
2022-09-23T17:04:16.295Z,0.90
2022-09-23T17:07:01.101Z,0.80
2022-09-23T17:09:29.240Z,1.27
2022-09-23T17:12:06.299Z,0.90
2022-09-23T17:14:33.822Z,1.20
2022-09-23T17:17:01.332Z,1.20
2022-09-23T17:19:28.373Z,0.87
2022-09-23T17:21:55.146Z,0.70
2022-09-23T17:24:21.837Z,0.90
2022-09-23T17:26:52.813Z,0.80
2022-09-23T17:29:20.162Z,0.90
2022-09-23T17:31:46.827Z,0.97
2022-09-23T17:34:13.653Z,0.90
2022-09-23T17:36:40.725Z,1.00
2022-09-23T17:39:07.500Z,1.10
2022-09-23T17:41:34.482Z,1.20
2022-09-23T17:44:02.110Z,1.30
2022-09-23T17:46:30.244Z,1.67
2022-09-23T17:48:57.532Z,1.27
2022-09-23T17:51:25.542Z,1.30
2022-09-23T17:53:52.662Z,0.83
2022-09-23T17:56:26.775Z,0.90
2022-09-23T17:58:54.165Z,0.97
2022-09-23T18:01:26.010Z,1.23
2022-09-23T18:03:57.719Z,1.00
2022-09-23T18:06:26.709Z,0.97
2022-09-23T18:08:53.611Z,1.00
2022-09-23T18:11:21.582Z,1.17
2022-09-23T18:13:53.158Z,1.00
2022-09-23T18:16:21.807Z,1.10
2022-09-23T18:18:53.126Z,1.17
2022-09-23T18:21:21.373Z,1.47
2022-09-23T18:23:48.914Z,1.50
2022-09-23T18:26:17.978Z,1.53
2022-09-23T18:28:45.284Z,2.40
2022-09-23T18:31:12.303Z,1.27
2022-09-23T18:33:39.466Z,1.53
2022-09-23T18:36:07.419Z,1.03
2022-09-23T18:38:34.975Z,1.50
2022-09-23T18:41:02.002Z,3.07
2022-09-23T18:43:37.527Z,1.37
2022-09-23T18:46:10.411Z,1.67
2022-09-23T18:48:55.906Z,1.37
2022-09-23T18:51:28.575Z,1.30
2022-09-23T18:56:29.654Z,1.30
2022-09-23T18:58:56.815Z,2.07
2022-09-23T19:01:24.532Z,1.57
2022-09-23T19:03:57.756Z,1.50
2022-09-23T19:06:25.119Z,1.50
2022-09-23T19:08:53.774Z,1.50
2022-09-23T19:11:21.693Z,1.87
2022-09-23T19:13:56.418Z,1.77
2022-09-23T19:16:24.578Z,1.97
2022-09-23T19:18:51.849Z,1.97
2022-09-23T19:21:21.543Z,1.77
2022-09-23T19:23:51.512Z,1.90
2022-09-23T19:26:21.774Z,2.13
2022-09-23T19:28:50.472Z,1.77
2022-09-23T19:31:23.218Z,2.07
2022-09-23T19:34:01.054Z,2.20
2022-09-23T19:36:32.947Z,3.13
2022-09-23T19:39:06.096Z,3.35
2022-09-23T19:41:33.751Z,2.77
2022-09-23T19:44:07.396Z,2.60
2022-09-23T19:46:40.929Z,2.73
2022-09-23T19:49:07.914Z,2.60
2022-09-23T19:51:35.463Z,3.10
2022-09-23T19:54:03.558Z,2.33
2022-09-23T19:56:31.987Z,2.50
2022-09-23T19:58:59.540Z,2.60
2022-09-23T20:01:29.737Z,2.90
2022-09-23T20:03:56.857Z,3.00
2022-09-23T20:06:23.790Z,2.17
2022-09-23T20:08:51.007Z,2.43
2022-09-23T20:11:23.665Z,2.33
2022-09-23T20:14:02.451Z,1.83
2022-09-23T20:16:32.523Z,1.97
2022-09-23T20:19:00.973Z,3.07
2022-09-23T20:21:29.678Z,2.27
2022-09-23T20:23:57.095Z,2.70
2022-09-23T20:26:42.645Z,2.13
2022-09-23T20:29:10.818Z,1.97
2022-09-23T20:31:40.584Z,2.83
2022-09-23T20:34:08.545Z,2.90
2022-09-23T20:36:36.104Z,2.80
2022-09-23T20:39:06.062Z,2.00
2022-09-23T20:41:38.071Z,3.33
2022-09-23T20:44:07.691Z,1.83
2022-09-23T20:46:34.721Z,2.20
2022-09-23T20:49:02.212Z,1.83
2022-09-23T20:51:29.008Z,2.60
2022-09-23T20:53:55.711Z,2.20
2022-09-23T20:56:22.906Z,2.03
2022-09-23T20:58:50.926Z,1.90
2022-09-23T21:01:18.316Z,2.73
2022-09-23T21:03:47.521Z,2.60
2022-09-23T21:06:16.795Z,1.97
2022-09-23T21:08:44.715Z,2.03
2022-09-23T21:11:17.071Z,2.50
2022-09-23T21:13:48.395Z,2.20
2022-09-23T21:16:17.279Z,1.77
2022-09-23T21:18:44.898Z,1.90
2022-09-23T21:21:14.160Z,2.33
2022-09-23T21:23:43.460Z,2.20
2022-09-23T21:26:12.880Z,2.20
2022-09-23T21:28:44.662Z,2.00
2022-09-23T21:31:23.164Z,1.65
2022-09-23T21:33:57.068Z,2.07
2022-09-23T21:36:24.980Z,1.50
2022-09-23T21:38:52.621Z,1.80
2022-09-23T21:41:20.210Z,2.57
2022-09-23T21:43:47.696Z,2.00
2022-09-23T21:46:20.195Z,2.50
2022-09-23T21:48:53.721Z,1.90
2022-09-23T21:51:27.875Z,1.90
2022-09-23T21:53:57.125Z,1.90
2022-09-23T21:56:28.813Z,2.00
2022-09-23T21:58:57.655Z,2.70
2022-09-23T22:01:27.296Z,2.70
2022-09-23T22:03:55.781Z,1.80
2022-09-23T22:06:26.940Z,1.73
2022-09-23T22:08:59.230Z,2.87
2022-09-23T22:11:47.105Z,1.85
2022-09-23T22:14:15.586Z,2.23
2022-09-23T22:16:42.984Z,2.10
2022-09-23T22:19:11.058Z,1.80
2022-09-23T22:21:39.053Z,1.47
2022-09-23T22:24:08.468Z,2.13
2022-09-23T22:26:40.876Z,1.70
2022-09-23T22:29:28.770Z,2.63
2022-09-23T22:32:14.450Z,1.83
2022-09-23T22:34:50.974Z,2.20
2022-09-23T22:37:28.826Z,2.00
2022-09-23T22:39:55.499Z,2.77
2022-09-23T22:42:22.547Z,2.00
2022-09-23T22:44:50.186Z,2.03
2022-09-23T22:47:20.705Z,1.23
2022-09-23T22:49:48.684Z,1.93
2022-09-23T22:52:21.309Z,2.03
2022-09-23T22:54:48.265Z,1.95
2022-09-23T22:57:15.327Z,1.93
2022-09-23T22:59:48.262Z,1.97
2022-09-23T23:02:19.954Z,3.03
2022-09-23T23:04:47.769Z,2.10
2022-09-23T23:07:16.035Z,2.30
2022-09-23T23:09:42.744Z,1.50
2022-09-23T23:12:09.378Z,2.07
2022-09-23T23:14:37.620Z,2.00
2022-09-23T23:17:07.588Z,1.60
2022-09-23T23:19:36.313Z,1.57
2022-09-23T23:22:04.678Z,2.30
2022-09-23T23:24:32.475Z,1.70
2022-09-23T23:26:59.230Z,1.70
2022-09-23T23:29:26.190Z,2.10
2022-09-23T23:31:52.940Z,1.87
2022-09-23T23:34:21.187Z,2.20
2022-09-23T23:36:55.299Z,1.83
2022-09-23T23:39:23.716Z,1.80
2022-09-23T23:41:58.165Z,1.70
2022-09-23T23:44:26.437Z,2.27
2022-09-23T23:46:54.375Z,1.90
2022-09-23T23:49:23.911Z,1.80
2022-09-23T23:51:50.709Z,1.80
2022-09-23T23:54:17.421Z,2.37
2022-09-23T23:56:44.343Z,2.60
2022-09-23T23:59:11.585Z,2.00
